sensor_id;sensor_type;location;lat;lon;timestamp;pressure;altitude;pressure_sealevel;temperature;humidity
32330;BME280;18807;52.434;13.238;2022-08-03T00:04:20;101292.78;;;19.20;84.30
32330;BME280;18807;52.434;13.238;2022-08-03T00:12:07;101289.19;;;19.17;85.21
32330;BME280;18807;52.434;13.238;2022-08-03T00:19:41;101283.81;;;19.14;84.96
32330;BME280;18807;52.434;13.238;2022-08-03T00:27:16;101281.94;;;19.20;85.06
32330;BME280;18807;52.434;13.238;2022-08-03T00:34:49;101274.75;;;19.19;85.20
32330;BME280;18807;52.434;13.238;2022-08-03T00:42:31;101263.09;;;19.11;85.92
32330;BME280;18807;52.434;13.238;2022-08-03T00:50:05;101267.63;;;19.09;87.55
32330;BME280;18807;52.434;13.238;2022-08-03T00:57:40;101255.03;;;19.05;88.03
32330;BME280;18807;52.434;13.238;2022-08-03T01:05:14;101252.34;;;19.02;88.37
32330;BME280;18807;52.434;13.238;2022-08-03T01:12:51;101249.66;;;19.01;89.34
32330;BME280;18807;52.434;13.238;2022-08-03T01:20:30;101254.22;;;18.99;92.47
32330;BME280;18807;52.434;13.238;2022-08-03T01:28:10;101252.44;;;18.96;93.83
32330;BME280;18807;52.434;13.238;2022-08-03T01:35:49;101232.59;;;18.96;94.79
32330;BME280;18807;52.434;13.238;2022-08-03T01:43:26;101239.81;;;18.94;94.54
32330;BME280;18807;52.434;13.238;2022-08-03T01:51:22;101237.09;;;18.95;94.41
32330;BME280;18807;52.434;13.238;2022-08-03T01:59:16;101242.53;;;18.94;95.12
32330;BME280;18807;52.434;13.238;2022-08-03T02:06:53;101228.09;;;18.93;95.90
32330;BME280;18807;52.434;13.238;2022-08-03T02:14:34;101234.44;;;18.92;95.49
32330;BME280;18807;52.434;13.238;2022-08-03T02:22:09;101232.69;;;18.88;95.64
32330;BME280;18807;52.434;13.238;2022-08-03T02:29:45;101235.38;;;18.88;100.00
32330;BME280;18807;52.434;13.238;2022-08-03T02:37:20;101236.31;;;18.83;100.00
32330;BME280;18807;52.434;13.238;2022-08-03T02:44:57;101231.84;;;18.80;100.00
32330;BME280;18807;52.434;13.238;2022-08-03T02:52:32;101232.81;;;18.76;99.36
32330;BME280;18807;52.434;13.238;2022-08-03T03:00:08;101245.47;;;18.74;95.90
32330;BME280;18807;52.434;13.238;2022-08-03T03:07:43;101236.47;;;18.71;94.04
32330;BME280;18807;52.434;13.238;2022-08-03T03:15:24;101239.22;;;18.68;95.08
32330;BME280;18807;52.434;13.238;2022-08-03T03:23:00;101242.84;;;18.64;97.45
32330;BME280;18807;52.434;13.238;2022-08-03T03:30:34;101234.72;;;18.65;98.46
32330;BME280;18807;52.434;13.238;2022-08-03T03:38:09;101237.47;;;18.62;96.55
32330;BME280;18807;52.434;13.238;2022-08-03T03:45:44;101236.66;;;18.56;97.00
32330;BME280;18807;52.434;13.238;2022-08-03T03:53:19;101235.81;;;18.46;94.67
32330;BME280;18807;52.434;13.238;2022-08-03T04:00:53;101234.03;;;18.47;94.11
32330;BME280;18807;52.434;13.238;2022-08-03T04:08:28;101225.00;;;18.45;95.35
32330;BME280;18807;52.434;13.238;2022-08-03T04:16:21;101227.69;;;18.48;95.31
32330;BME280;18807;52.434;13.238;2022-08-03T04:23:58;101240.28;;;18.49;96.13
32330;BME280;18807;52.434;13.238;2022-08-03T04:31:34;101239.38;;;18.54;96.61
32330;BME280;18807;52.434;13.238;2022-08-03T04:39:12;101248.38;;;18.53;96.84
32330;BME280;18807;52.434;13.238;2022-08-03T04:46:46;101251.94;;;18.58;94.91
32330;BME280;18807;52.434;13.238;2022-08-03T04:54:25;101250.13;;;18.60;84.83
32330;BME280;18807;52.434;13.238;2022-08-03T05:01:59;101259.91;;;18.75;79.71
32330;BME280;18807;52.434;13.238;2022-08-03T05:09:34;101253.44;;;18.88;77.64
32330;BME280;18807;52.434;13.238;2022-08-03T05:17:24;101263.19;;;19.02;75.08
32330;BME280;18807;52.434;13.238;2022-08-03T05:24:59;101268.41;;;19.20;73.23
32330;BME280;18807;52.434;13.238;2022-08-03T05:32:32;101264.56;;;19.41;71.61
32330;BME280;18807;52.434;13.238;2022-08-03T05:40:08;101261.44;;;19.71;67.74
32330;BME280;18807;52.434;13.238;2022-08-03T05:47:42;101268.09;;;20.10;64.90
32330;BME280;18807;52.434;13.238;2022-08-03T05:55:17;101271.34;;;20.33;64.91
32330;BME280;18807;52.434;13.238;2022-08-03T06:02:51;101268.81;;;20.74;61.10
32330;BME280;18807;52.434;13.238;2022-08-03T06:10:25;101277.44;;;20.98;60.56
32330;BME280;18807;52.434;13.238;2022-08-03T06:18:09;101275.22;;;21.20;58.95
32330;BME280;18807;52.434;13.238;2022-08-03T06:25:44;101271.72;;;21.54;56.31
32330;BME280;18807;52.434;13.238;2022-08-03T06:33:18;101270.28;;;21.80;56.11
32330;BME280;18807;52.434;13.238;2022-08-03T06:40:52;101275.00;;;22.11;54.34
32330;BME280;18807;52.434;13.238;2022-08-03T06:48:26;101271.66;;;22.37;53.73
32330;BME280;18807;52.434;13.238;2022-08-03T06:56:01;101270.00;;;22.66;52.77
32330;BME280;18807;52.434;13.238;2022-08-03T07:03:36;101266.16;;;23.07;51.94
32330;BME280;18807;52.434;13.238;2022-08-03T07:11:25;101262.75;;;23.31;51.10
32330;BME280;18807;52.434;13.238;2022-08-03T07:18:59;101255.81;;;23.79;49.67
32330;BME280;18807;52.434;13.238;2022-08-03T07:26:34;101257.66;;;24.35;46.92
32330;BME280;18807;52.434;13.238;2022-08-03T07:34:08;101258.00;;;24.52;46.10
32330;BME280;18807;52.434;13.238;2022-08-03T07:41:43;101262.25;;;24.87;45.72
32330;BME280;18807;52.434;13.238;2022-08-03T07:49:17;101256.75;;;25.13;44.24
32330;BME280;18807;52.434;13.238;2022-08-03T07:56:52;101264.09;;;25.35;44.05
32330;BME280;18807;52.434;13.238;2022-08-03T08:04:25;101253.97;;;25.62;43.59
32330;BME280;18807;52.434;13.238;2022-08-03T08:12:00;101259.75;;;26.01;42.34
32330;BME280;18807;52.434;13.238;2022-08-03T08:19:46;101261.34;;;26.49;41.75
32330;BME280;18807;52.434;13.238;2022-08-03T08:27:24;101264.81;;;26.96;41.00
32330;BME280;18807;52.434;13.238;2022-08-03T08:34:58;101260.97;;;27.20;39.63
32330;BME280;18807;52.434;13.238;2022-08-03T08:42:33;101250.22;;;28.48;37.37
32330;BME280;18807;52.434;13.238;2022-08-03T08:50:07;101261.13;;;28.50;36.60
32330;BME280;18807;52.434;13.238;2022-08-03T08:58:01;101251.91;;;28.68;36.34
32330;BME280;18807;52.434;13.238;2022-08-03T09:05:37;101251.72;;;28.89;35.71
32330;BME280;18807;52.434;13.238;2022-08-03T09:13:28;101240.56;;;29.27;35.43
32330;BME280;18807;52.434;13.238;2022-08-03T09:21:11;101234.41;;;30.18;33.88
32330;BME280;18807;52.434;13.238;2022-08-03T09:29:04;101235.94;;;30.54;32.93
32330;BME280;18807;52.434;13.238;2022-08-03T09:36:46;101238.31;;;30.76;32.47
32330;BME280;18807;52.434;13.238;2022-08-03T09:44:21;101227.25;;;30.92;32.13
32330;BME280;18807;52.434;13.238;2022-08-03T09:52:12;101228.56;;;31.44;32.92
32330;BME280;18807;52.434;13.238;2022-08-03T10:00:10;101225.78;;;31.44;31.44
32330;BME280;18807;52.434;13.238;2022-08-03T10:07:45;101213.16;;;31.54;32.02
32330;BME280;18807;52.434;13.238;2022-08-03T10:15:20;101210.47;;;31.38;30.71
32330;BME280;18807;52.434;13.238;2022-08-03T10:23:14;101209.16;;;31.16;30.94
32330;BME280;18807;52.434;13.238;2022-08-03T10:30:51;101201.66;;;31.18;31.71
32330;BME280;18807;52.434;13.238;2022-08-03T10:38:28;101193.53;;;31.30;31.74
32330;BME280;18807;52.434;13.238;2022-08-03T10:46:03;101196.44;;;31.27;31.90
32330;BME280;18807;52.434;13.238;2022-08-03T10:53:39;101188.84;;;31.17;32.48
32330;BME280;18807;52.434;13.238;2022-08-03T11:09:40;101170.88;;;31.10;32.63
32330;BME280;18807;52.434;13.238;2022-08-03T11:17:14;101170.94;;;30.94;32.28
32330;BME280;18807;52.434;13.238;2022-08-03T11:24:59;101165.16;;;31.13;32.22
32330;BME280;18807;52.434;13.238;2022-08-03T11:32:52;101162.66;;;30.94;32.97
32330;BME280;18807;52.434;13.238;2022-08-03T11:40:35;101159.03;;;31.22;31.29
32330;BME280;18807;52.434;13.238;2022-08-03T11:48:12;101159.28;;;30.89;31.61
32330;BME280;18807;52.434;13.238;2022-08-03T11:55:47;101156.88;;;31.13;32.03
32330;BME280;18807;52.434;13.238;2022-08-03T12:03:21;101146.31;;;31.19;32.92
32330;BME280;18807;52.434;13.238;2022-08-03T12:10:57;101141.50;;;31.37;32.14
32330;BME280;18807;52.434;13.238;2022-08-03T12:18:31;101146.38;;;31.33;32.45
32330;BME280;18807;52.434;13.238;2022-08-03T12:26:08;101139.84;;;31.48;31.81
32330;BME280;18807;52.434;13.238;2022-08-03T12:33:54;101127.41;;;31.55;31.74
32330;BME280;18807;52.434;13.238;2022-08-03T12:41:32;101123.13;;;31.64;31.87
32330;BME280;18807;52.434;13.238;2022-08-03T12:49:07;101114.53;;;31.54;31.75
32330;BME280;18807;52.434;13.238;2022-08-03T12:56:56;101102.94;;;31.49;31.64
32330;BME280;18807;52.434;13.238;2022-08-03T13:04:31;101101.63;;;31.69;32.15
32330;BME280;18807;52.434;13.238;2022-08-03T13:12:07;101102.50;;;31.83;31.70
32330;BME280;18807;52.434;13.238;2022-08-03T13:19:42;101098.81;;;31.97;31.93
32330;BME280;18807;52.434;13.238;2022-08-03T13:27:17;101086.25;;;31.91;33.30
32330;BME280;18807;52.434;13.238;2022-08-03T13:35:11;101088.25;;;31.89;31.78
32330;BME280;18807;52.434;13.238;2022-08-03T13:42:49;101090.91;;;31.91;32.15
32330;BME280;18807;52.434;13.238;2022-08-03T13:50:22;101083.25;;;32.08;31.85
32330;BME280;18807;52.434;13.238;2022-08-03T13:57:57;101076.28;;;32.15;31.45
32330;BME280;18807;52.434;13.238;2022-08-03T14:05:38;101056.28;;;32.24;31.71
32330;BME280;18807;52.434;13.238;2022-08-03T14:13:13;101048.28;;;32.34;31.39
32330;BME280;18807;52.434;13.238;2022-08-03T14:20:49;101043.09;;;32.80;30.87
32330;BME280;18807;52.434;13.238;2022-08-03T14:28:29;101041.34;;;32.79;30.57
32330;BME280;18807;52.434;13.238;2022-08-03T14:36:04;101045.53;;;32.72;30.40
32330;BME280;18807;52.434;13.238;2022-08-03T14:43:39;101046.19;;;33.38;30.71
32330;BME280;18807;52.434;13.238;2022-08-03T14:51:32;101047.66;;;33.06;30.07
32330;BME280;18807;52.434;13.238;2022-08-03T14:59:07;101030.78;;;33.21;29.75
32330;BME280;18807;52.434;13.238;2022-08-03T15:06:41;101034.72;;;33.55;30.01
32330;BME280;18807;52.434;13.238;2022-08-03T15:14:21;101024.50;;;33.91;29.29
32330;BME280;18807;52.434;13.238;2022-08-03T15:22:06;101019.94;;;34.38;29.58
32330;BME280;18807;52.434;13.238;2022-08-03T15:29:41;101015.81;;;33.72;28.91
32330;BME280;18807;52.434;13.238;2022-08-03T15:37:35;101010.81;;;33.29;30.92
32330;BME280;18807;52.434;13.238;2022-08-03T15:45:10;101012.38;;;33.45;30.15
32330;BME280;18807;52.434;13.238;2022-08-03T15:52:49;101006.44;;;34.09;29.52
32330;BME280;18807;52.434;13.238;2022-08-03T16:00:24;101006.50;;;33.97;29.55
32330;BME280;18807;52.434;13.238;2022-08-03T16:08:05;101000.16;;;33.71;29.38
32330;BME280;18807;52.434;13.238;2022-08-03T16:15:46;100998.69;;;33.55;29.41
32330;BME280;18807;52.434;13.238;2022-08-03T16:23:19;100991.72;;;33.01;29.60
32330;BME280;18807;52.434;13.238;2022-08-03T16:30:54;100992.63;;;33.50;31.42
32330;BME280;18807;52.434;13.238;2022-08-03T16:38:28;100986.13;;;33.85;29.78
32330;BME280;18807;52.434;13.238;2022-08-03T16:46:03;100986.63;;;34.14;29.05
32330;BME280;18807;52.434;13.238;2022-08-03T16:53:37;100992.88;;;33.94;29.36
32330;BME280;18807;52.434;13.238;2022-08-03T17:01:32;100997.41;;;33.35;29.32
32330;BME280;18807;52.434;13.238;2022-08-03T17:09:09;100990.50;;;33.05;30.67
32330;BME280;18807;52.434;13.238;2022-08-03T17:16:45;100999.03;;;33.02;30.18
32330;BME280;18807;52.434;13.238;2022-08-03T17:24:26;101005.13;;;32.82;31.58
32330;BME280;18807;52.434;13.238;2022-08-03T17:32:01;101004.56;;;32.51;33.02
32330;BME280;18807;52.434;13.238;2022-08-03T17:39:42;100999.31;;;32.22;33.16
32330;BME280;18807;52.434;13.238;2022-08-03T17:47:33;101005.53;;;31.99;33.92
32330;BME280;18807;52.434;13.238;2022-08-03T17:55:16;101010.97;;;31.74;36.23
32330;BME280;18807;52.434;13.238;2022-08-03T18:03:14;101007.44;;;31.45;37.00
32330;BME280;18807;52.434;13.238;2022-08-03T18:10:54;101020.84;;;31.23;37.99
32330;BME280;18807;52.434;13.238;2022-08-03T18:18:36;101020.69;;;30.98;38.87
32330;BME280;18807;52.434;13.238;2022-08-03T18:26:14;101016.03;;;30.70;39.88
32330;BME280;18807;52.434;13.238;2022-08-03T18:33:50;101011.97;;;30.48;40.84
32330;BME280;18807;52.434;13.238;2022-08-03T18:41:43;101025.84;;;30.17;43.12
32330;BME280;18807;52.434;13.238;2022-08-03T18:49:23;101020.53;;;29.84;44.42
32330;BME280;18807;52.434;13.238;2022-08-03T18:57:00;101030.41;;;29.57;46.21
32330;BME280;18807;52.434;13.238;2022-08-03T19:04:37;101033.06;;;29.28;44.08
32330;BME280;18807;52.434;13.238;2022-08-03T19:12:15;101036.75;;;28.95;46.18
32330;BME280;18807;52.434;13.238;2022-08-03T19:20:07;101025.69;;;28.64;47.79
32330;BME280;18807;52.434;13.238;2022-08-03T19:27:42;101043.78;;;28.34;47.75
32330;BME280;18807;52.434;13.238;2022-08-03T19:35:17;101050.59;;;28.10;48.72
32330;BME280;18807;52.434;13.238;2022-08-03T19:43:16;101047.53;;;27.81;49.61
32330;BME280;18807;52.434;13.238;2022-08-03T19:50:51;101041.34;;;27.59;50.45
32330;BME280;18807;52.434;13.238;2022-08-03T19:58:28;101038.13;;;27.32;52.11
32330;BME280;18807;52.434;13.238;2022-08-03T20:06:04;101038.50;;;27.06;53.62
32330;BME280;18807;52.434;13.238;2022-08-03T20:13:38;101027.66;;;26.84;54.40
32330;BME280;18807;52.434;13.238;2022-08-03T20:21:14;101027.72;;;26.64;55.79
32330;BME280;18807;52.434;13.238;2022-08-03T20:28:51;101034.41;;;26.37;58.31
32330;BME280;18807;52.434;13.238;2022-08-03T20:36:26;101030.22;;;26.09;59.29
32330;BME280;18807;52.434;13.238;2022-08-03T20:44:01;101029.31;;;25.88;60.49
32330;BME280;18807;52.434;13.238;2022-08-03T20:51:37;101028.56;;;25.63;62.09
32330;BME280;18807;52.434;13.238;2022-08-03T20:59:24;101036.78;;;25.42;62.80
32330;BME280;18807;52.434;13.238;2022-08-03T21:07:20;101035.25;;;25.34;61.96
32330;BME280;18807;52.434;13.238;2022-08-03T21:14:57;101034.31;;;25.12;64.72
32330;BME280;18807;52.434;13.238;2022-08-03T21:22:32;101036.69;;;24.98;64.75
32330;BME280;18807;52.434;13.238;2022-08-03T21:30:09;101037.44;;;24.80;66.98
32330;BME280;18807;52.434;13.238;2022-08-03T21:37:44;101034.38;;;24.65;66.45
32330;BME280;18807;52.434;13.238;2022-08-03T21:45:18;101034.19;;;24.46;67.61
32330;BME280;18807;52.434;13.238;2022-08-03T21:52:53;101021.25;;;24.27;68.17
32330;BME280;18807;52.434;13.238;2022-08-03T22:00:28;101037.19;;;24.14;68.83
32330;BME280;18807;52.434;13.238;2022-08-03T22:08:04;101035.94;;;23.98;69.29
32330;BME280;18807;52.434;13.238;2022-08-03T22:15:37;101041.84;;;23.85;71.23
32330;BME280;18807;52.434;13.238;2022-08-03T22:23:12;101045.53;;;23.84;69.33
32330;BME280;18807;52.434;13.238;2022-08-03T22:30:52;101040.41;;;23.75;69.40
32330;BME280;18807;52.434;13.238;2022-08-03T22:38:27;101047.16;;;23.63;71.43
32330;BME280;18807;52.434;13.238;2022-08-03T22:46:01;101051.22;;;23.50;72.65
32330;BME280;18807;52.434;13.238;2022-08-03T22:53:45;101049.81;;;23.38;71.18
32330;BME280;18807;52.434;13.238;2022-08-03T23:01:19;101056.56;;;23.27;72.47
32330;BME280;18807;52.434;13.238;2022-08-03T23:08:56;101053.31;;;23.13;73.81
32330;BME280;18807;52.434;13.238;2022-08-03T23:16:30;101051.84;;;23.03;74.22
32330;BME280;18807;52.434;13.238;2022-08-03T23:24:10;101053.03;;;22.94;73.25
32330;BME280;18807;52.434;13.238;2022-08-03T23:32:01;101049.72;;;22.83;73.19
32330;BME280;18807;52.434;13.238;2022-08-03T23:39:36;101048.44;;;22.66;75.43
32330;BME280;18807;52.434;13.238;2022-08-03T23:47:11;101053.25;;;22.58;75.69
32330;BME280;18807;52.434;13.238;2022-08-03T23:54:54;101051.59;;;22.51;75.51
